Aspinwall, Iowa
Current Conditions -  °F | °C
As of 10:15 AM on Wednesday 26 Nov 2014 (Local Time) from KDNS Reporting Station
Light Rain Light Rain  
Wind Chill: 18°   Ceiling: 700
Heat Index: 30°   Visibility: 7mi
Dew Point: 30°   Wind: 17mph
Humidity: 100%   Direction: 10°N
Pressure: 29.97"   Gusts: NA
Location:  41.91°N, 95.14°W
Report Text: KDNS 261615Z AUTO 01015KT 7SM -RA OVC007 M01/M01 A2997 RMK AO2
Loading
Personal Weather Stations






























Interactive Weather Map New forecast layout! Learn more

10-Day Weather Forecast

Advertisements
Track Severe Weather on mobile